sensor_id;sensor_type;location;lat;lon;timestamp;temperature;humidity
14101;DHT22;7127;49.372;8.166;2023-05-18T00:01:20;13.50;40.70
14101;DHT22;7127;49.372;8.166;2023-05-18T00:03:48;13.30;40.60
14101;DHT22;7127;49.372;8.166;2023-05-18T00:06:20;13.60;41.10
14101;DHT22;7127;49.372;8.166;2023-05-18T00:08:47;13.40;41.00
14101;DHT22;7127;49.372;8.166;2023-05-18T00:11:14;13.40;40.80
14101;DHT22;7127;49.372;8.166;2023-05-18T00:13:41;13.40;41.10
14101;DHT22;7127;49.372;8.166;2023-05-18T00:16:08;13.30;40.80
14101;DHT22;7127;49.372;8.166;2023-05-18T00:18:36;13.30;41.20
14101;DHT22;7127;49.372;8.166;2023-05-18T00:21:03;13.30;41.10
14101;DHT22;7127;49.372;8.166;2023-05-18T00:23:32;13.30;41.10
14101;DHT22;7127;49.372;8.166;2023-05-18T00:26:00;13.50;41.30
14101;DHT22;7127;49.372;8.166;2023-05-18T00:28:28;13.10;41.00
14101;DHT22;7127;49.372;8.166;2023-05-18T00:30:55;13.20;41.00
14101;DHT22;7127;49.372;8.166;2023-05-18T00:33:23;13.90;42.00
14101;DHT22;7127;49.372;8.166;2023-05-18T00:35:50;13.10;41.10
14101;DHT22;7127;49.372;8.166;2023-05-18T00:38:17;13.10;41.30
14101;DHT22;7127;49.372;8.166;2023-05-18T00:40:46;13.00;41.20
14101;DHT22;7127;49.372;8.166;2023-05-18T00:43:13;12.90;41.10
14101;DHT22;7127;49.372;8.166;2023-05-18T00:45:40;13.10;41.40
14101;DHT22;7127;49.372;8.166;2023-05-18T00:48:07;13.20;42.20
14101;DHT22;7127;49.372;8.166;2023-05-18T00:50:35;12.90;41.60
14101;DHT22;7127;49.372;8.166;2023-05-18T00:53:02;12.90;41.70
14101;DHT22;7127;49.372;8.166;2023-05-18T00:55:30;12.80;41.80
14101;DHT22;7127;49.372;8.166;2023-05-18T00:58:04;12.80;41.50
14101;DHT22;7127;49.372;8.166;2023-05-18T01:00:32;12.80;41.80
14101;DHT22;7127;49.372;8.166;2023-05-18T01:03:03;12.70;42.50
14101;DHT22;7127;49.372;8.166;2023-05-18T01:05:30;12.70;42.00
14101;DHT22;7127;49.372;8.166;2023-05-18T01:07:57;12.60;41.90
14101;DHT22;7127;49.372;8.166;2023-05-18T01:10:28;12.60;41.90
14101;DHT22;7127;49.372;8.166;2023-05-18T01:13:02;12.80;42.10
14101;DHT22;7127;49.372;8.166;2023-05-18T01:15:34;12.60;42.30
14101;DHT22;7127;49.372;8.166;2023-05-18T01:18:09;12.60;42.30
14101;DHT22;7127;49.372;8.166;2023-05-18T01:20:44;12.70;42.40
14101;DHT22;7127;49.372;8.166;2023-05-18T01:23:52;12.60;42.30
14101;DHT22;7127;49.372;8.166;2023-05-18T01:26:26;12.60;42.20
14101;DHT22;7127;49.372;8.166;2023-05-18T01:28:58;12.60;42.30
14101;DHT22;7127;49.372;8.166;2023-05-18T01:31:26;12.60;42.00
14101;DHT22;7127;49.372;8.166;2023-05-18T01:33:53;12.60;42.00
14101;DHT22;7127;49.372;8.166;2023-05-18T01:36:20;12.60;42.10
14101;DHT22;7127;49.372;8.166;2023-05-18T01:38:48;12.60;42.10
14101;DHT22;7127;49.372;8.166;2023-05-18T01:41:19;12.50;42.40
14101;DHT22;7127;49.372;8.166;2023-05-18T01:43:52;12.50;42.70
14101;DHT22;7127;49.372;8.166;2023-05-18T01:46:34;12.80;43.20
14101;DHT22;7127;49.372;8.166;2023-05-18T01:49:06;12.50;42.60
14101;DHT22;7127;49.372;8.166;2023-05-18T01:51:40;12.50;42.50
14101;DHT22;7127;49.372;8.166;2023-05-18T01:54:10;12.50;42.40
14101;DHT22;7127;49.372;8.166;2023-05-18T01:56:39;12.50;42.60
14101;DHT22;7127;49.372;8.166;2023-05-18T01:59:07;12.30;42.60
14101;DHT22;7127;49.372;8.166;2023-05-18T02:01:35;12.40;42.60
14101;DHT22;7127;49.372;8.166;2023-05-18T02:04:07;12.50;42.80
14101;DHT22;7127;49.372;8.166;2023-05-18T02:06:34;12.40;42.80
14101;DHT22;7127;49.372;8.166;2023-05-18T02:09:03;12.40;42.90
14101;DHT22;7127;49.372;8.166;2023-05-18T02:11:30;12.40;42.60
14101;DHT22;7127;49.372;8.166;2023-05-18T02:13:57;12.30;42.60
14101;DHT22;7127;49.372;8.166;2023-05-18T02:16:26;13.10;43.40
14101;DHT22;7127;49.372;8.166;2023-05-18T02:19:03;12.50;42.60
14101;DHT22;7127;49.372;8.166;2023-05-18T02:21:30;12.40;42.50
14101;DHT22;7127;49.372;8.166;2023-05-18T02:23:59;12.40;42.40
14101;DHT22;7127;49.372;8.166;2023-05-18T02:26:32;12.50;42.50
14101;DHT22;7127;49.372;8.166;2023-05-18T02:28:59;12.60;42.70
14101;DHT22;7127;49.372;8.166;2023-05-18T02:31:28;12.40;42.50
14101;DHT22;7127;49.372;8.166;2023-05-18T02:33:56;12.50;42.60
14101;DHT22;7127;49.372;8.166;2023-05-18T02:36:23;12.70;42.70
14101;DHT22;7127;49.372;8.166;2023-05-18T02:38:50;12.20;42.30
14101;DHT22;7127;49.372;8.166;2023-05-18T02:41:17;12.30;42.40
14101;DHT22;7127;49.372;8.166;2023-05-18T02:43:44;12.40;42.50
14101;DHT22;7127;49.372;8.166;2023-05-18T02:46:11;12.60;42.60
14101;DHT22;7127;49.372;8.166;2023-05-18T02:48:40;12.50;42.50
14101;DHT22;7127;49.372;8.166;2023-05-18T02:51:10;12.40;42.70
14101;DHT22;7127;49.372;8.166;2023-05-18T02:53:37;12.50;42.60
14101;DHT22;7127;49.372;8.166;2023-05-18T02:56:04;12.30;42.80
14101;DHT22;7127;49.372;8.166;2023-05-18T02:58:32;12.30;42.70
14101;DHT22;7127;49.372;8.166;2023-05-18T03:00:59;12.20;42.60
14101;DHT22;7127;49.372;8.166;2023-05-18T03:03:28;12.20;42.70
14101;DHT22;7127;49.372;8.166;2023-05-18T03:05:56;12.20;42.70
14101;DHT22;7127;49.372;8.166;2023-05-18T03:08:25;12.40;42.90
14101;DHT22;7127;49.372;8.166;2023-05-18T03:11:05;12.30;42.80
14101;DHT22;7127;49.372;8.166;2023-05-18T03:13:32;12.20;42.90
14101;DHT22;7127;49.372;8.166;2023-05-18T03:15:59;12.80;43.30
14101;DHT22;7127;49.372;8.166;2023-05-18T03:18:40;12.10;43.00
14101;DHT22;7127;49.372;8.166;2023-05-18T03:21:09;12.20;42.80
14101;DHT22;7127;49.372;8.166;2023-05-18T03:23:38;12.40;43.00
14101;DHT22;7127;49.372;8.166;2023-05-18T03:26:05;12.40;43.20
14101;DHT22;7127;49.372;8.166;2023-05-18T03:28:35;12.30;43.10
14101;DHT22;7127;49.372;8.166;2023-05-18T03:31:02;12.20;43.00
14101;DHT22;7127;49.372;8.166;2023-05-18T03:33:29;12.20;43.30
14101;DHT22;7127;49.372;8.166;2023-05-18T03:36:00;12.20;43.10
14101;DHT22;7127;49.372;8.166;2023-05-18T03:38:30;12.20;43.30
14101;DHT22;7127;49.372;8.166;2023-05-18T03:40:57;12.30;43.50
14101;DHT22;7127;49.372;8.166;2023-05-18T03:43:24;12.20;43.20
14101;DHT22;7127;49.372;8.166;2023-05-18T03:45:51;12.30;43.40
14101;DHT22;7127;49.372;8.166;2023-05-18T03:48:19;12.20;43.30
14101;DHT22;7127;49.372;8.166;2023-05-18T03:50:46;12.20;43.20
14101;DHT22;7127;49.372;8.166;2023-05-18T03:53:13;12.20;43.30
14101;DHT22;7127;49.372;8.166;2023-05-18T03:55:44;12.30;43.40
14101;DHT22;7127;49.372;8.166;2023-05-18T03:58:12;12.30;43.60
14101;DHT22;7127;49.372;8.166;2023-05-18T04:00:39;12.40;43.50
14101;DHT22;7127;49.372;8.166;2023-05-18T04:03:07;12.30;43.60
14101;DHT22;7127;49.372;8.166;2023-05-18T04:05:37;12.30;43.40
14101;DHT22;7127;49.372;8.166;2023-05-18T04:08:04;12.40;43.50
14101;DHT22;7127;49.372;8.166;2023-05-18T04:10:33;12.50;43.50
14101;DHT22;7127;49.372;8.166;2023-05-18T04:13:01;12.20;43.30
14101;DHT22;7127;49.372;8.166;2023-05-18T04:15:28;12.20;43.30
14101;DHT22;7127;49.372;8.166;2023-05-18T04:17:58;12.20;43.40
14101;DHT22;7127;49.372;8.166;2023-05-18T04:20:26;12.20;43.30
14101;DHT22;7127;49.372;8.166;2023-05-18T04:22:55;12.30;43.40
14101;DHT22;7127;49.372;8.166;2023-05-18T04:25:23;12.40;43.70
14101;DHT22;7127;49.372;8.166;2023-05-18T04:27:52;12.30;43.50
14101;DHT22;7127;49.372;8.166;2023-05-18T04:30:22;12.30;43.40
14101;DHT22;7127;49.372;8.166;2023-05-18T04:32:49;12.30;43.50
14101;DHT22;7127;49.372;8.166;2023-05-18T04:35:16;12.30;43.60
14101;DHT22;7127;49.372;8.166;2023-05-18T04:37:44;12.50;43.60
14101;DHT22;7127;49.372;8.166;2023-05-18T04:40:12;12.40;43.60
14101;DHT22;7127;49.372;8.166;2023-05-18T04:42:42;12.30;43.90
14101;DHT22;7127;49.372;8.166;2023-05-18T04:45:12;12.40;43.80
14101;DHT22;7127;49.372;8.166;2023-05-18T04:47:44;12.40;43.70
14101;DHT22;7127;49.372;8.166;2023-05-18T04:50:15;12.40;43.80
14101;DHT22;7127;49.372;8.166;2023-05-18T04:52:44;12.40;43.90
14101;DHT22;7127;49.372;8.166;2023-05-18T04:55:13;12.40;44.10
14101;DHT22;7127;49.372;8.166;2023-05-18T04:57:41;12.60;44.20
14101;DHT22;7127;49.372;8.166;2023-05-18T05:00:10;12.50;44.20
14101;DHT22;7127;49.372;8.166;2023-05-18T05:02:37;12.40;43.90
14101;DHT22;7127;49.372;8.166;2023-05-18T05:05:07;12.50;44.20
14101;DHT22;7127;49.372;8.166;2023-05-18T05:07:34;12.40;44.10
14101;DHT22;7127;49.372;8.166;2023-05-18T05:10:08;12.40;44.30
14101;DHT22;7127;49.372;8.166;2023-05-18T05:12:36;12.50;44.40
14101;DHT22;7127;49.372;8.166;2023-05-18T05:15:03;12.40;44.20
14101;DHT22;7127;49.372;8.166;2023-05-18T05:17:30;12.50;44.80
14101;DHT22;7127;49.372;8.166;2023-05-18T05:19:57;12.50;44.50
14101;DHT22;7127;49.372;8.166;2023-05-18T05:22:26;12.90;44.80
14101;DHT22;7127;49.372;8.166;2023-05-18T05:24:53;12.50;44.50
14101;DHT22;7127;49.372;8.166;2023-05-18T05:27:20;12.60;44.70
14101;DHT22;7127;49.372;8.166;2023-05-18T05:29:51;12.90;44.80
14101;DHT22;7127;49.372;8.166;2023-05-18T05:32:18;12.70;44.60
14101;DHT22;7127;49.372;8.166;2023-05-18T05:34:45;12.70;44.70
14101;DHT22;7127;49.372;8.166;2023-05-18T05:37:14;12.70;44.70
14101;DHT22;7127;49.372;8.166;2023-05-18T05:39:43;12.80;44.70
14101;DHT22;7127;49.372;8.166;2023-05-18T05:42:10;12.90;44.70
14101;DHT22;7127;49.372;8.166;2023-05-18T05:44:36;13.00;44.50
14101;DHT22;7127;49.372;8.166;2023-05-18T05:47:04;13.00;44.40
14101;DHT22;7127;49.372;8.166;2023-05-18T05:49:30;13.00;44.40
14101;DHT22;7127;49.372;8.166;2023-05-18T05:51:57;13.10;44.40
14101;DHT22;7127;49.372;8.166;2023-05-18T05:54:24;13.10;44.30
14101;DHT22;7127;49.372;8.166;2023-05-18T05:56:52;13.10;44.30
14101;DHT22;7127;49.372;8.166;2023-05-18T05:59:19;13.20;44.70
14101;DHT22;7127;49.372;8.166;2023-05-18T06:01:47;13.20;44.30
14101;DHT22;7127;49.372;8.166;2023-05-18T06:04:13;13.30;44.30
14101;DHT22;7127;49.372;8.166;2023-05-18T06:06:40;13.40;44.40
14101;DHT22;7127;49.372;8.166;2023-05-18T06:09:08;13.40;44.90
14101;DHT22;7127;49.372;8.166;2023-05-18T06:11:35;13.50;44.30
14101;DHT22;7127;49.372;8.166;2023-05-18T06:14:03;13.60;44.30
14101;DHT22;7127;49.372;8.166;2023-05-18T06:16:30;13.60;44.20
14101;DHT22;7127;49.372;8.166;2023-05-18T06:18:57;13.80;44.30
14101;DHT22;7127;49.372;8.166;2023-05-18T06:21:24;13.70;44.20
14101;DHT22;7127;49.372;8.166;2023-05-18T06:23:51;13.80;44.20
14101;DHT22;7127;49.372;8.166;2023-05-18T06:26:18;13.80;44.10
14101;DHT22;7127;49.372;8.166;2023-05-18T06:28:46;13.90;44.10
14101;DHT22;7127;49.372;8.166;2023-05-18T06:31:15;13.90;44.10
14101;DHT22;7127;49.372;8.166;2023-05-18T06:33:43;13.90;44.10
14101;DHT22;7127;49.372;8.166;2023-05-18T06:36:10;13.90;44.00
14101;DHT22;7127;49.372;8.166;2023-05-18T06:38:37;14.00;44.00
14101;DHT22;7127;49.372;8.166;2023-05-18T06:41:04;14.00;43.90
14101;DHT22;7127;49.372;8.166;2023-05-18T06:43:31;14.00;44.10
14101;DHT22;7127;49.372;8.166;2023-05-18T06:45:57;14.00;44.00
14101;DHT22;7127;49.372;8.166;2023-05-18T06:48:27;14.00;43.80
14101;DHT22;7127;49.372;8.166;2023-05-18T06:50:54;14.00;44.00
14101;DHT22;7127;49.372;8.166;2023-05-18T06:53:21;13.90;43.90
14101;DHT22;7127;49.372;8.166;2023-05-18T06:55:48;13.90;44.00
14101;DHT22;7127;49.372;8.166;2023-05-18T06:58:15;14.00;44.30
14101;DHT22;7127;49.372;8.166;2023-05-18T07:00:42;14.00;44.40
14101;DHT22;7127;49.372;8.166;2023-05-18T07:03:09;14.10;45.30
14101;DHT22;7127;49.372;8.166;2023-05-18T07:05:37;14.10;44.60
14101;DHT22;7127;49.372;8.166;2023-05-18T07:08:04;14.10;44.50
14101;DHT22;7127;49.372;8.166;2023-05-18T07:10:31;14.20;44.50
14101;DHT22;7127;49.372;8.166;2023-05-18T07:13:00;14.20;44.40
14101;DHT22;7127;49.372;8.166;2023-05-18T07:15:27;14.30;44.40
14101;DHT22;7127;49.372;8.166;2023-05-18T07:17:54;14.20;44.30
14101;DHT22;7127;49.372;8.166;2023-05-18T07:20:22;14.40;44.30
14101;DHT22;7127;49.372;8.166;2023-05-18T07:22:50;14.40;44.30
14101;DHT22;7127;49.372;8.166;2023-05-18T07:25:19;14.40;45.00
14101;DHT22;7127;49.372;8.166;2023-05-18T07:27:48;14.40;44.40
14101;DHT22;7127;49.372;8.166;2023-05-18T07:30:16;14.50;44.60
14101;DHT22;7127;49.372;8.166;2023-05-18T07:32:44;14.40;44.80
14101;DHT22;7127;49.372;8.166;2023-05-18T07:35:11;14.50;44.90
14101;DHT22;7127;49.372;8.166;2023-05-18T07:37:38;14.50;44.90
14101;DHT22;7127;49.372;8.166;2023-05-18T07:40:08;14.50;44.90
14101;DHT22;7127;49.372;8.166;2023-05-18T07:42:38;14.60;45.00
14101;DHT22;7127;49.372;8.166;2023-05-18T07:45:06;14.60;44.90
14101;DHT22;7127;49.372;8.166;2023-05-18T07:47:34;14.70;45.10
14101;DHT22;7127;49.372;8.166;2023-05-18T07:50:02;14.70;45.00
14101;DHT22;7127;49.372;8.166;2023-05-18T07:52:30;14.80;45.10
14101;DHT22;7127;49.372;8.166;2023-05-18T07:54:57;14.80;44.90
14101;DHT22;7127;49.372;8.166;2023-05-18T07:57:25;14.90;44.90
14101;DHT22;7127;49.372;8.166;2023-05-18T07:59:55;15.00;44.90
14101;DHT22;7127;49.372;8.166;2023-05-18T08:02:22;15.20;45.10
14101;DHT22;7127;49.372;8.166;2023-05-18T08:04:49;15.20;44.90
14101;DHT22;7127;49.372;8.166;2023-05-18T08:07:16;15.20;44.70
14101;DHT22;7127;49.372;8.166;2023-05-18T08:09:44;15.30;44.70
14101;DHT22;7127;49.372;8.166;2023-05-18T08:12:11;15.30;44.60
14101;DHT22;7127;49.372;8.166;2023-05-18T08:14:39;15.30;44.60
14101;DHT22;7127;49.372;8.166;2023-05-18T08:17:06;15.40;44.50
14101;DHT22;7127;49.372;8.166;2023-05-18T08:19:33;15.50;44.20
14101;DHT22;7127;49.372;8.166;2023-05-18T08:22:01;15.50;44.20
14101;DHT22;7127;49.372;8.166;2023-05-18T08:24:29;15.60;44.30
14101;DHT22;7127;49.372;8.166;2023-05-18T08:26:56;15.70;44.40
14101;DHT22;7127;49.372;8.166;2023-05-18T08:29:23;15.60;44.10
14101;DHT22;7127;49.372;8.166;2023-05-18T08:31:51;15.80;44.30
14101;DHT22;7127;49.372;8.166;2023-05-18T08:34:19;15.80;44.10
14101;DHT22;7127;49.372;8.166;2023-05-18T08:36:46;15.80;44.00
14101;DHT22;7127;49.372;8.166;2023-05-18T08:39:13;15.90;44.20
14101;DHT22;7127;49.372;8.166;2023-05-18T08:41:47;16.00;44.40
14101;DHT22;7127;49.372;8.166;2023-05-18T08:44:24;16.00;44.40
14101;DHT22;7127;49.372;8.166;2023-05-18T08:46:55;16.30;44.20
14101;DHT22;7127;49.372;8.166;2023-05-18T08:49:23;16.20;44.00
14101;DHT22;7127;49.372;8.166;2023-05-18T08:51:55;16.30;43.70
14101;DHT22;7127;49.372;8.166;2023-05-18T08:54:24;16.40;43.70
14101;DHT22;7127;49.372;8.166;2023-05-18T08:56:52;16.60;43.40
14101;DHT22;7127;49.372;8.166;2023-05-18T08:59:23;16.50;43.50
14101;DHT22;7127;49.372;8.166;2023-05-18T09:01:50;16.60;44.10
14101;DHT22;7127;49.372;8.166;2023-05-18T09:04:21;16.70;43.70
14101;DHT22;7127;49.372;8.166;2023-05-18T09:06:50;16.80;43.70
14101;DHT22;7127;49.372;8.166;2023-05-18T09:09:21;16.90;43.40
14101;DHT22;7127;49.372;8.166;2023-05-18T09:11:50;16.90;43.40
14101;DHT22;7127;49.372;8.166;2023-05-18T09:14:17;17.10;43.60
14101;DHT22;7127;49.372;8.166;2023-05-18T09:16:47;17.20;43.70
14101;DHT22;7127;49.372;8.166;2023-05-18T09:19:14;17.20;41.80
14101;DHT22;7127;49.372;8.166;2023-05-18T09:21:43;17.30;42.70
14101;DHT22;7127;49.372;8.166;2023-05-18T09:24:10;17.50;43.00
14101;DHT22;7127;49.372;8.166;2023-05-18T09:26:37;17.30;42.90
14101;DHT22;7127;49.372;8.166;2023-05-18T09:29:15;17.50;42.90
14101;DHT22;7127;49.372;8.166;2023-05-18T09:31:43;17.70;42.50
14101;DHT22;7127;49.372;8.166;2023-05-18T09:34:10;17.70;42.40
14101;DHT22;7127;49.372;8.166;2023-05-18T09:36:37;17.70;42.30
14101;DHT22;7127;49.372;8.166;2023-05-18T09:39:09;17.80;41.90
14101;DHT22;7127;49.372;8.166;2023-05-18T09:49:51;18.10;42.10
14101;DHT22;7127;49.372;8.166;2023-05-18T09:52:18;18.10;41.30
14101;DHT22;7127;49.372;8.166;2023-05-18T09:54:56;18.10;41.70
14101;DHT22;7127;49.372;8.166;2023-05-18T09:57:25;18.20;41.40
14101;DHT22;7127;49.372;8.166;2023-05-18T09:59:55;18.20;41.80
14101;DHT22;7127;49.372;8.166;2023-05-18T10:02:24;18.30;41.60
14101;DHT22;7127;49.372;8.166;2023-05-18T10:04:51;18.40;40.70
14101;DHT22;7127;49.372;8.166;2023-05-18T10:07:18;18.40;40.60
14101;DHT22;7127;49.372;8.166;2023-05-18T10:10:00;18.50;41.00
14101;DHT22;7127;49.372;8.166;2023-05-18T10:12:28;18.60;41.00
14101;DHT22;7127;49.372;8.166;2023-05-18T10:14:55;18.70;41.00
14101;DHT22;7127;49.372;8.166;2023-05-18T10:17:23;18.80;40.60
14101;DHT22;7127;49.372;8.166;2023-05-18T10:19:55;18.90;40.70
14101;DHT22;7127;49.372;8.166;2023-05-18T10:22:43;19.00;40.50
14101;DHT22;7127;49.372;8.166;2023-05-18T10:25:16;19.10;40.20
14101;DHT22;7127;49.372;8.166;2023-05-18T10:27:45;19.10;40.40
14101;DHT22;7127;49.372;8.166;2023-05-18T10:30:14;19.10;39.80
14101;DHT22;7127;49.372;8.166;2023-05-18T10:32:42;19.20;40.50
14101;DHT22;7127;49.372;8.166;2023-05-18T10:35:10;19.20;40.40
14101;DHT22;7127;49.372;8.166;2023-05-18T10:37:42;19.30;40.20
14101;DHT22;7127;49.372;8.166;2023-05-18T10:40:13;19.30;39.80
14101;DHT22;7127;49.372;8.166;2023-05-18T10:42:41;19.40;40.30
14101;DHT22;7127;49.372;8.166;2023-05-18T10:45:09;19.50;40.50
14101;DHT22;7127;49.372;8.166;2023-05-18T10:47:39;19.50;40.40
14101;DHT22;7127;49.372;8.166;2023-05-18T10:50:09;19.60;40.20
14101;DHT22;7127;49.372;8.166;2023-05-18T10:52:36;19.80;40.10
14101;DHT22;7127;49.372;8.166;2023-05-18T10:55:04;19.70;39.30
14101;DHT22;7127;49.372;8.166;2023-05-18T10:57:37;19.90;39.50
14101;DHT22;7127;49.372;8.166;2023-05-18T11:00:06;20.00;39.00
14101;DHT22;7127;49.372;8.166;2023-05-18T11:02:36;20.10;39.00
14101;DHT22;7127;49.372;8.166;2023-05-18T11:05:05;20.10;39.10
14101;DHT22;7127;49.372;8.166;2023-05-18T11:07:32;20.10;39.00
14101;DHT22;7127;49.372;8.166;2023-05-18T11:10:00;20.20;39.10
14101;DHT22;7127;49.372;8.166;2023-05-18T11:12:30;20.30;39.10
14101;DHT22;7127;49.372;8.166;2023-05-18T11:15:00;20.40;38.80
14101;DHT22;7127;49.372;8.166;2023-05-18T11:17:28;20.40;38.60
14101;DHT22;7127;49.372;8.166;2023-05-18T11:20:12;20.40;37.80
14101;DHT22;7127;49.372;8.166;2023-05-18T11:22:47;20.40;38.00
14101;DHT22;7127;49.372;8.166;2023-05-18T11:25:41;20.40;37.20
14101;DHT22;7127;49.372;8.166;2023-05-18T11:28:21;20.40;37.60
14101;DHT22;7127;49.372;8.166;2023-05-18T11:30:50;20.50;37.90
14101;DHT22;7127;49.372;8.166;2023-05-18T11:33:25;20.50;37.80
14101;DHT22;7127;49.372;8.166;2023-05-18T11:35:58;20.50;37.50
14101;DHT22;7127;49.372;8.166;2023-05-18T11:38:51;20.50;36.90
14101;DHT22;7127;49.372;8.166;2023-05-18T11:41:32;20.50;36.80
14101;DHT22;7127;49.372;8.166;2023-05-18T11:44:16;20.50;36.30
14101;DHT22;7127;49.372;8.166;2023-05-18T11:46:54;20.50;36.60
14101;DHT22;7127;49.372;8.166;2023-05-18T11:49:24;20.50;36.60
14101;DHT22;7127;49.372;8.166;2023-05-18T11:51:56;20.40;35.90
14101;DHT22;7127;49.372;8.166;2023-05-18T11:54:24;20.40;36.90
14101;DHT22;7127;49.372;8.166;2023-05-18T11:56:51;20.50;37.10
14101;DHT22;7127;49.372;8.166;2023-05-18T11:59:29;20.40;36.90
14101;DHT22;7127;49.372;8.166;2023-05-18T12:02:01;20.50;36.90
14101;DHT22;7127;49.372;8.166;2023-05-18T12:04:29;20.60;37.00
14101;DHT22;7127;49.372;8.166;2023-05-18T12:06:58;20.60;36.70
14101;DHT22;7127;49.372;8.166;2023-05-18T12:09:26;20.80;36.50
14101;DHT22;7127;49.372;8.166;2023-05-18T12:11:56;20.80;36.70
14101;DHT22;7127;49.372;8.166;2023-05-18T12:14:23;20.90;36.40
14101;DHT22;7127;49.372;8.166;2023-05-18T12:16:51;21.00;36.60
14101;DHT22;7127;49.372;8.166;2023-05-18T12:19:20;21.10;36.30
14101;DHT22;7127;49.372;8.166;2023-05-18T12:21:48;21.10;35.10
14101;DHT22;7127;49.372;8.166;2023-05-18T12:24:15;21.10;35.70
14101;DHT22;7127;49.372;8.166;2023-05-18T12:26:42;21.20;35.60
14101;DHT22;7127;49.372;8.166;2023-05-18T12:29:11;21.20;35.70
14101;DHT22;7127;49.372;8.166;2023-05-18T12:31:45;21.40;35.30
14101;DHT22;7127;49.372;8.166;2023-05-18T12:34:12;21.40;35.40
14101;DHT22;7127;49.372;8.166;2023-05-18T12:36:52;21.40;35.00
14101;DHT22;7127;49.372;8.166;2023-05-18T12:39:19;21.50;35.00
14101;DHT22;7127;49.372;8.166;2023-05-18T12:41:46;21.50;35.40
14101;DHT22;7127;49.372;8.166;2023-05-18T12:44:14;21.50;35.10
14101;DHT22;7127;49.372;8.166;2023-05-18T12:46:41;21.60;34.80
14101;DHT22;7127;49.372;8.166;2023-05-18T12:49:09;21.60;34.70
14101;DHT22;7127;49.372;8.166;2023-05-18T12:51:40;21.70;34.60
14101;DHT22;7127;49.372;8.166;2023-05-18T12:54:15;21.60;34.80
14101;DHT22;7127;49.372;8.166;2023-05-18T12:56:53;21.70;34.40
14101;DHT22;7127;49.372;8.166;2023-05-18T12:59:24;21.70;32.90
14101;DHT22;7127;49.372;8.166;2023-05-18T13:01:52;21.60;33.70
14101;DHT22;7127;49.372;8.166;2023-05-18T13:04:19;21.60;34.00
14101;DHT22;7127;49.372;8.166;2023-05-18T13:06:46;21.50;33.90
14101;DHT22;7127;49.372;8.166;2023-05-18T13:09:15;21.60;33.60
14101;DHT22;7127;49.372;8.166;2023-05-18T13:11:46;21.50;33.50
14101;DHT22;7127;49.372;8.166;2023-05-18T13:14:13;21.70;33.20
14101;DHT22;7127;49.372;8.166;2023-05-18T13:16:49;21.50;33.60
14101;DHT22;7127;49.372;8.166;2023-05-18T13:19:17;21.50;33.60
14101;DHT22;7127;49.372;8.166;2023-05-18T13:21:45;21.50;33.60
14101;DHT22;7127;49.372;8.166;2023-05-18T13:24:12;21.50;33.60
14101;DHT22;7127;49.372;8.166;2023-05-18T13:26:41;21.60;33.70
14101;DHT22;7127;49.372;8.166;2023-05-18T13:29:08;21.50;33.60
14101;DHT22;7127;49.372;8.166;2023-05-18T13:31:35;21.50;33.50
14101;DHT22;7127;49.372;8.166;2023-05-18T13:34:03;21.60;34.10
14101;DHT22;7127;49.372;8.166;2023-05-18T13:36:30;21.60;33.50
14101;DHT22;7127;49.372;8.166;2023-05-18T13:39:00;21.60;33.40
14101;DHT22;7127;49.372;8.166;2023-05-18T13:41:30;21.60;33.50
14101;DHT22;7127;49.372;8.166;2023-05-18T13:43:58;21.70;33.60
14101;DHT22;7127;49.372;8.166;2023-05-18T13:46:25;21.60;33.00
14101;DHT22;7127;49.372;8.166;2023-05-18T13:48:52;21.60;33.10
14101;DHT22;7127;49.372;8.166;2023-05-18T13:51:19;21.50;33.50
14101;DHT22;7127;49.372;8.166;2023-05-18T13:53:46;21.60;33.00
14101;DHT22;7127;49.372;8.166;2023-05-18T13:56:14;21.60;33.00
14101;DHT22;7127;49.372;8.166;2023-05-18T13:58:41;21.60;33.00
14101;DHT22;7127;49.372;8.166;2023-05-18T14:01:12;21.60;33.00
14101;DHT22;7127;49.372;8.166;2023-05-18T14:03:49;21.60;31.70
14101;DHT22;7127;49.372;8.166;2023-05-18T14:06:23;21.60;31.60
14101;DHT22;7127;49.372;8.166;2023-05-18T14:08:52;21.50;32.50
14101;DHT22;7127;49.372;8.166;2023-05-18T14:11:18;21.70;33.00
14101;DHT22;7127;49.372;8.166;2023-05-18T14:13:46;21.60;33.10
14101;DHT22;7127;49.372;8.166;2023-05-18T14:16:14;21.60;33.30
14101;DHT22;7127;49.372;8.166;2023-05-18T14:18:41;21.70;33.60
14101;DHT22;7127;49.372;8.166;2023-05-18T14:21:08;21.70;33.60
14101;DHT22;7127;49.372;8.166;2023-05-18T14:23:37;21.70;33.40
14101;DHT22;7127;49.372;8.166;2023-05-18T14:26:04;21.70;33.30
14101;DHT22;7127;49.372;8.166;2023-05-18T14:28:31;21.70;33.20
14101;DHT22;7127;49.372;8.166;2023-05-18T14:30:58;21.70;32.80
14101;DHT22;7127;49.372;8.166;2023-05-18T14:33:26;21.70;32.80
14101;DHT22;7127;49.372;8.166;2023-05-18T14:35:53;21.80;33.20
14101;DHT22;7127;49.372;8.166;2023-05-18T14:38:22;21.80;33.30
14101;DHT22;7127;49.372;8.166;2023-05-18T14:40:51;22.00;33.20
14101;DHT22;7127;49.372;8.166;2023-05-18T14:43:18;21.90;33.20
14101;DHT22;7127;49.372;8.166;2023-05-18T14:45:45;22.00;33.00
14101;DHT22;7127;49.372;8.166;2023-05-18T14:48:12;22.00;32.60
14101;DHT22;7127;49.372;8.166;2023-05-18T14:50:40;22.00;32.40
14101;DHT22;7127;49.372;8.166;2023-05-18T14:53:07;21.90;31.60
14101;DHT22;7127;49.372;8.166;2023-05-18T14:55:34;22.00;32.30
14101;DHT22;7127;49.372;8.166;2023-05-18T14:58:01;22.00;32.40
14101;DHT22;7127;49.372;8.166;2023-05-18T15:00:30;22.00;32.50
14101;DHT22;7127;49.372;8.166;2023-05-18T15:02:57;22.00;32.70
14101;DHT22;7127;49.372;8.166;2023-05-18T15:05:25;22.00;32.60
14101;DHT22;7127;49.372;8.166;2023-05-18T15:07:53;22.00;32.60
14101;DHT22;7127;49.372;8.166;2023-05-18T15:10:20;22.10;32.30
14101;DHT22;7127;49.372;8.166;2023-05-18T15:12:47;22.00;30.90
14101;DHT22;7127;49.372;8.166;2023-05-18T15:15:14;21.90;31.70
14101;DHT22;7127;49.372;8.166;2023-05-18T15:17:42;22.00;32.00
14101;DHT22;7127;49.372;8.166;2023-05-18T15:20:09;22.00;31.50
14101;DHT22;7127;49.372;8.166;2023-05-18T15:22:36;22.00;32.00
14101;DHT22;7127;49.372;8.166;2023-05-18T15:25:07;22.00;32.00
14101;DHT22;7127;49.372;8.166;2023-05-18T15:27:35;22.10;32.30
14101;DHT22;7127;49.372;8.166;2023-05-18T15:30:03;22.20;32.10
14101;DHT22;7127;49.372;8.166;2023-05-18T15:32:35;22.20;32.00
14101;DHT22;7127;49.372;8.166;2023-05-18T15:35:02;22.20;31.90
14101;DHT22;7127;49.372;8.166;2023-05-18T15:37:30;22.20;31.90
14101;DHT22;7127;49.372;8.166;2023-05-18T15:39:57;22.20;31.90
14101;DHT22;7127;49.372;8.166;2023-05-18T15:42:26;22.20;31.90
14101;DHT22;7127;49.372;8.166;2023-05-18T15:44:53;22.10;32.00
14101;DHT22;7127;49.372;8.166;2023-05-18T15:47:20;22.10;32.10
14101;DHT22;7127;49.372;8.166;2023-05-18T15:49:47;22.20;32.20
14101;DHT22;7127;49.372;8.166;2023-05-18T15:52:13;22.20;32.40
14101;DHT22;7127;49.372;8.166;2023-05-18T15:54:40;22.30;32.20
14101;DHT22;7127;49.372;8.166;2023-05-18T15:57:07;22.30;31.80
14101;DHT22;7127;49.372;8.166;2023-05-18T15:59:35;22.30;31.80
14101;DHT22;7127;49.372;8.166;2023-05-18T16:02:05;22.30;31.90
14101;DHT22;7127;49.372;8.166;2023-05-18T16:08:19;22.40;31.80